sensor_id;sensor_type;location;lat;lon;timestamp;pressure;altitude;pressure_sealevel;temperature;humidity
8298;BME280;4187;42.778;23.242;2023-04-28T00:01:44;95524.13;;;4.22;100.00
8298;BME280;4187;42.778;23.242;2023-04-28T00:04:10;95513.34;;;4.14;100.00
8298;BME280;4187;42.778;23.242;2023-04-28T00:06:37;95531.94;;;4.22;100.00
8298;BME280;4187;42.778;23.242;2023-04-28T00:09:05;95530.00;;;4.26;100.00
8298;BME280;4187;42.778;23.242;2023-04-28T00:11:34;95530.22;;;4.35;100.00
8298;BME280;4187;42.778;23.242;2023-04-28T00:14:03;95523.13;;;4.37;100.00
8298;BME280;4187;42.778;23.242;2023-04-28T00:16:30;95523.66;;;4.42;100.00
8298;BME280;4187;42.778;23.242;2023-04-28T00:18:57;95532.84;;;4.35;100.00
8298;BME280;4187;42.778;23.242;2023-04-28T00:21:23;95530.31;;;4.34;100.00
8298;BME280;4187;42.778;23.242;2023-04-28T00:23:50;95526.88;;;4.33;100.00
8298;BME280;4187;42.778;23.242;2023-04-28T00:26:17;95530.63;;;4.29;100.00
8298;BME280;4187;42.778;23.242;2023-04-28T00:28:44;95532.09;;;4.33;100.00
8298;BME280;4187;42.778;23.242;2023-04-28T00:31:13;95533.78;;;4.34;100.00
8298;BME280;4187;42.778;23.242;2023-04-28T00:33:40;95535.47;;;4.35;100.00
8298;BME280;4187;42.778;23.242;2023-04-28T00:36:08;95536.59;;;4.31;100.00
8298;BME280;4187;42.778;23.242;2023-04-28T00:38:36;95544.03;;;4.37;100.00
8298;BME280;4187;42.778;23.242;2023-04-28T00:41:03;95540.03;;;4.32;100.00
8298;BME280;4187;42.778;23.242;2023-04-28T00:43:30;95499.41;;;4.01;100.00
8298;BME280;4187;42.778;23.242;2023-04-28T00:45:56;95533.41;;;4.13;100.00
8298;BME280;4187;42.778;23.242;2023-04-28T00:48:25;95542.66;;;4.32;100.00
8298;BME280;4187;42.778;23.242;2023-04-28T00:50:52;95550.81;;;4.27;100.00
8298;BME280;4187;42.778;23.242;2023-04-28T00:53:19;95547.16;;;4.30;100.00
8298;BME280;4187;42.778;23.242;2023-04-28T00:55:47;95537.19;;;4.22;100.00
8298;BME280;4187;42.778;23.242;2023-04-28T00:58:14;95549.44;;;4.34;100.00
8298;BME280;4187;42.778;23.242;2023-04-28T01:00:41;95554.03;;;4.31;100.00
8298;BME280;4187;42.778;23.242;2023-04-28T01:03:08;95551.09;;;4.22;100.00
8298;BME280;4187;42.778;23.242;2023-04-28T01:05:36;95548.81;;;4.04;100.00
8298;BME280;4187;42.778;23.242;2023-04-28T01:08:03;95551.22;;;3.94;100.00
8298;BME280;4187;42.778;23.242;2023-04-28T01:10:30;95550.56;;;3.91;100.00
8298;BME280;4187;42.778;23.242;2023-04-28T01:12:57;95550.91;;;3.72;100.00
8298;BME280;4187;42.778;23.242;2023-04-28T01:15:24;95557.41;;;3.65;100.00
8298;BME280;4187;42.778;23.242;2023-04-28T01:17:51;95555.84;;;3.62;100.00
8298;BME280;4187;42.778;23.242;2023-04-28T01:20:18;95560.31;;;3.75;100.00
8298;BME280;4187;42.778;23.242;2023-04-28T01:22:46;95540.19;;;3.62;100.00
8298;BME280;4187;42.778;23.242;2023-04-28T01:25:15;95559.16;;;3.79;100.00
8298;BME280;4187;42.778;23.242;2023-04-28T01:27:41;95558.38;;;3.91;100.00
8298;BME280;4187;42.778;23.242;2023-04-28T01:30:09;95557.25;;;3.95;100.00
8298;BME280;4187;42.778;23.242;2023-04-28T01:32:37;95516.66;;;3.77;100.00
8298;BME280;4187;42.778;23.242;2023-04-28T01:35:04;95555.19;;;4.00;100.00
8298;BME280;4187;42.778;23.242;2023-04-28T01:37:31;95558.94;;;3.96;100.00
8298;BME280;4187;42.778;23.242;2023-04-28T01:40:05;95548.88;;;3.90;100.00
8298;BME280;4187;42.778;23.242;2023-04-28T01:42:34;95558.53;;;4.02;100.00
8298;BME280;4187;42.778;23.242;2023-04-28T01:45:01;95554.16;;;4.02;100.00
8298;BME280;4187;42.778;23.242;2023-04-28T01:47:29;95556.25;;;3.97;100.00
8298;BME280;4187;42.778;23.242;2023-04-28T01:49:56;95557.25;;;3.95;100.00
8298;BME280;4187;42.778;23.242;2023-04-28T01:52:23;95556.25;;;3.97;100.00
8298;BME280;4187;42.778;23.242;2023-04-28T01:54:51;95567.91;;;3.92;100.00
8298;BME280;4187;42.778;23.242;2023-04-28T01:57:18;95563.41;;;3.94;100.00
8298;BME280;4187;42.778;23.242;2023-04-28T01:59:46;95562.69;;;3.92;100.00
8298;BME280;4187;42.778;23.242;2023-04-28T02:02:13;95556.69;;;3.90;100.00
8298;BME280;4187;42.778;23.242;2023-04-28T02:04:40;95568.13;;;3.75;100.00
8298;BME280;4187;42.778;23.242;2023-04-28T02:07:07;95561.41;;;3.71;100.00
8298;BME280;4187;42.778;23.242;2023-04-28T02:09:34;95560.50;;;3.72;100.00
8298;BME280;4187;42.778;23.242;2023-04-28T02:12:01;95571.78;;;3.72;100.00
8298;BME280;4187;42.778;23.242;2023-04-28T02:14:28;95568.06;;;3.62;100.00
8298;BME280;4187;42.778;23.242;2023-04-28T02:16:58;95568.56;;;3.26;100.00
8298;BME280;4187;42.778;23.242;2023-04-28T02:19:27;95568.81;;;2.79;100.00
8298;BME280;4187;42.778;23.242;2023-04-28T02:21:54;95575.94;;;2.48;100.00
8298;BME280;4187;42.778;23.242;2023-04-28T02:24:20;95554.13;;;2.05;100.00
8298;BME280;4187;42.778;23.242;2023-04-28T02:26:47;95575.03;;;2.03;100.00
8298;BME280;4187;42.778;23.242;2023-04-28T02:29:14;95533.34;;;1.73;100.00
8298;BME280;4187;42.778;23.242;2023-04-28T02:31:41;95580.00;;;1.92;100.00
8298;BME280;4187;42.778;23.242;2023-04-28T02:34:09;95588.00;;;1.89;100.00
8298;BME280;4187;42.778;23.242;2023-04-28T02:36:36;95586.56;;;1.84;100.00
8298;BME280;4187;42.778;23.242;2023-04-28T02:39:03;95586.56;;;1.84;100.00
8298;BME280;4187;42.778;23.242;2023-04-28T02:41:29;95583.97;;;1.84;100.00
8298;BME280;4187;42.778;23.242;2023-04-28T02:43:58;95591.00;;;1.97;100.00
8298;BME280;4187;42.778;23.242;2023-04-28T02:46:25;95584.00;;;2.13;100.00
8298;BME280;4187;42.778;23.242;2023-04-28T02:48:52;95590.13;;;2.12;100.00
8298;BME280;4187;42.778;23.242;2023-04-28T02:51:20;95585.94;;;2.10;100.00
8298;BME280;4187;42.778;23.242;2023-04-28T02:53:47;95585.16;;;2.23;100.00
8298;BME280;4187;42.778;23.242;2023-04-28T02:56:14;95570.72;;;2.18;100.00
8298;BME280;4187;42.778;23.242;2023-04-28T02:58:41;95599.25;;;2.35;100.00
8298;BME280;4187;42.778;23.242;2023-04-28T03:01:08;95596.78;;;2.48;100.00
8298;BME280;4187;42.778;23.242;2023-04-28T03:03:35;95603.13;;;2.58;100.00
8298;BME280;4187;42.778;23.242;2023-04-28T03:06:02;95592.81;;;2.56;100.00
8298;BME280;4187;42.778;23.242;2023-04-28T03:08:30;95611.59;;;2.61;100.00
8298;BME280;4187;42.778;23.242;2023-04-28T03:10:57;95609.19;;;2.58;100.00
8298;BME280;4187;42.778;23.242;2023-04-28T03:13:24;95611.03;;;2.56;100.00
8298;BME280;4187;42.778;23.242;2023-04-28T03:15:51;95612.97;;;2.53;100.00
8298;BME280;4187;42.778;23.242;2023-04-28T03:18:18;95611.84;;;2.42;100.00
8298;BME280;4187;42.778;23.242;2023-04-28T03:20:45;95622.41;;;2.39;100.00
8298;BME280;4187;42.778;23.242;2023-04-28T03:23:11;95623.16;;;2.41;100.00
8298;BME280;4187;42.778;23.242;2023-04-28T03:25:40;95632.91;;;2.38;100.00
8298;BME280;4187;42.778;23.242;2023-04-28T03:28:06;95623.34;;;2.38;100.00
8298;BME280;4187;42.778;23.242;2023-04-28T03:30:35;95633.59;;;2.41;100.00
8298;BME280;4187;42.778;23.242;2023-04-28T03:33:01;95641.91;;;2.48;100.00
8298;BME280;4187;42.778;23.242;2023-04-28T03:35:28;95642.78;;;2.63;100.00
8298;BME280;4187;42.778;23.242;2023-04-28T03:37:55;95639.41;;;2.90;100.00
8298;BME280;4187;42.778;23.242;2023-04-28T03:40:22;95645.41;;;4.84;100.00
8298;BME280;4187;42.778;23.242;2023-04-28T03:42:50;95644.72;;;5.95;100.00
8298;BME280;4187;42.778;23.242;2023-04-28T03:45:17;95660.69;;;6.76;100.00
8298;BME280;4187;42.778;23.242;2023-04-28T03:47:44;95661.66;;;6.51;100.00
8298;BME280;4187;42.778;23.242;2023-04-28T03:50:11;95669.16;;;6.80;100.00
8298;BME280;4187;42.778;23.242;2023-04-28T03:52:37;95664.66;;;7.16;100.00
8298;BME280;4187;42.778;23.242;2023-04-28T03:55:05;95669.19;;;7.14;97.60
8298;BME280;4187;42.778;23.242;2023-04-28T03:57:32;95677.75;;;6.58;93.73
8298;BME280;4187;42.778;23.242;2023-04-28T04:00:00;95679.41;;;5.99;95.26
8298;BME280;4187;42.778;23.242;2023-04-28T04:02:27;95681.28;;;5.47;97.83
8298;BME280;4187;42.778;23.242;2023-04-28T04:04:53;95684.81;;;5.08;99.06
8298;BME280;4187;42.778;23.242;2023-04-28T04:07:21;95681.81;;;4.87;100.00
8298;BME280;4187;42.778;23.242;2023-04-28T04:09:48;95660.09;;;4.60;100.00
8298;BME280;4187;42.778;23.242;2023-04-28T04:12:15;95665.94;;;4.51;100.00
8298;BME280;4187;42.778;23.242;2023-04-28T04:14:43;95684.78;;;4.56;100.00
8298;BME280;4187;42.778;23.242;2023-04-28T04:17:11;95682.75;;;4.47;100.00
8298;BME280;4187;42.778;23.242;2023-04-28T04:19:38;95689.97;;;4.43;100.00
8298;BME280;4187;42.778;23.242;2023-04-28T04:22:05;95694.53;;;4.40;100.00
8298;BME280;4187;42.778;23.242;2023-04-28T04:24:32;95695.56;;;4.37;100.00
8298;BME280;4187;42.778;23.242;2023-04-28T04:26:59;95695.38;;;4.40;100.00
8298;BME280;4187;42.778;23.242;2023-04-28T04:29:26;95693.50;;;4.42;100.00
8298;BME280;4187;42.778;23.242;2023-04-28T04:31:53;95699.06;;;4.50;100.00
8298;BME280;4187;42.778;23.242;2023-04-28T04:34:21;95702.34;;;4.54;100.00
8298;BME280;4187;42.778;23.242;2023-04-28T04:36:48;95704.44;;;4.61;100.00
8298;BME280;4187;42.778;23.242;2023-04-28T04:39:14;95702.75;;;4.60;100.00
8298;BME280;4187;42.778;23.242;2023-04-28T04:41:41;95700.06;;;4.62;100.00
8298;BME280;4187;42.778;23.242;2023-04-28T04:44:08;95709.81;;;4.72;100.00
8298;BME280;4187;42.778;23.242;2023-04-28T04:46:35;95704.19;;;4.78;100.00
8298;BME280;4187;42.778;23.242;2023-04-28T04:49:02;95708.81;;;4.88;100.00
8298;BME280;4187;42.778;23.242;2023-04-28T04:51:30;95719.03;;;5.05;100.00
8298;BME280;4187;42.778;23.242;2023-04-28T04:53:57;95710.53;;;5.14;100.00
8298;BME280;4187;42.778;23.242;2023-04-28T04:56:24;95717.19;;;5.32;100.00
8298;BME280;4187;42.778;23.242;2023-04-28T04:58:51;95705.88;;;5.31;100.00
8298;BME280;4187;42.778;23.242;2023-04-28T05:01:18;95733.34;;;5.51;100.00
8298;BME280;4187;42.778;23.242;2023-04-28T05:03:44;95729.16;;;5.61;100.00
8298;BME280;4187;42.778;23.242;2023-04-28T05:06:11;95732.59;;;5.74;100.00
8298;BME280;4187;42.778;23.242;2023-04-28T05:08:39;95732.34;;;5.91;100.00
8298;BME280;4187;42.778;23.242;2023-04-28T05:11:06;95731.38;;;6.05;100.00
8298;BME280;4187;42.778;23.242;2023-04-28T05:13:33;95731.22;;;6.19;100.00
8298;BME280;4187;42.778;23.242;2023-04-28T05:16:00;95729.75;;;6.28;100.00
8298;BME280;4187;42.778;23.242;2023-04-28T05:18:26;95736.94;;;6.49;100.00
8298;BME280;4187;42.778;23.242;2023-04-28T05:20:53;95736.47;;;6.68;100.00
8298;BME280;4187;42.778;23.242;2023-04-28T05:23:20;95714.19;;;6.74;100.00
8298;BME280;4187;42.778;23.242;2023-04-28T05:25:48;95742.97;;;6.99;100.00
8298;BME280;4187;42.778;23.242;2023-04-28T05:28:15;95738.13;;;7.05;100.00
8298;BME280;4187;42.778;23.242;2023-04-28T05:30:42;95729.09;;;7.20;100.00
8298;BME280;4187;42.778;23.242;2023-04-28T05:33:09;95733.19;;;7.36;100.00
8298;BME280;4187;42.778;23.242;2023-04-28T05:35:36;95729.22;;;7.54;100.00
8298;BME280;4187;42.778;23.242;2023-04-28T05:38:02;95734.59;;;7.63;99.87
8298;BME280;4187;42.778;23.242;2023-04-28T05:40:29;95727.81;;;7.72;96.93
8298;BME280;4187;42.778;23.242;2023-04-28T05:42:57;95728.19;;;7.90;97.83
8298;BME280;4187;42.778;23.242;2023-04-28T05:45:24;95722.84;;;8.02;95.14
8298;BME280;4187;42.778;23.242;2023-04-28T05:47:51;95729.06;;;8.12;95.78
8298;BME280;4187;42.778;23.242;2023-04-28T05:50:18;95732.75;;;8.21;96.91
8298;BME280;4187;42.778;23.242;2023-04-28T05:52:46;95720.13;;;8.37;96.85
8298;BME280;4187;42.778;23.242;2023-04-28T05:55:13;95697.63;;;8.33;96.89
8298;BME280;4187;42.778;23.242;2023-04-28T05:57:39;95733.72;;;8.64;98.33
8298;BME280;4187;42.778;23.242;2023-04-28T06:00:09;95746.63;;;8.78;92.66
8298;BME280;4187;42.778;23.242;2023-04-28T06:02:36;95737.09;;;8.98;93.50
8298;BME280;4187;42.778;23.242;2023-04-28T06:05:03;95734.91;;;9.14;91.80
8298;BME280;4187;42.778;23.242;2023-04-28T06:07:30;95737.25;;;9.28;88.84
8298;BME280;4187;42.778;23.242;2023-04-28T06:09:56;95733.75;;;9.28;88.32
8298;BME280;4187;42.778;23.242;2023-04-28T06:12:23;95733.03;;;9.37;89.69
8298;BME280;4187;42.778;23.242;2023-04-28T06:14:50;95736.44;;;9.48;90.60
8298;BME280;4187;42.778;23.242;2023-04-28T06:17:20;95697.69;;;9.39;91.13
8298;BME280;4187;42.778;23.242;2023-04-28T06:19:48;95728.88;;;9.76;88.46
8298;BME280;4187;42.778;23.242;2023-04-28T06:22:15;95727.19;;;9.75;88.84
8298;BME280;4187;42.778;23.242;2023-04-28T06:24:42;95742.28;;;9.93;91.54
8298;BME280;4187;42.778;23.242;2023-04-28T06:27:09;95731.91;;;10.12;89.59
8298;BME280;4187;42.778;23.242;2023-04-28T06:29:36;95741.69;;;10.31;87.75
8298;BME280;4187;42.778;23.242;2023-04-28T06:32:03;95741.63;;;10.52;85.78
8298;BME280;4187;42.778;23.242;2023-04-28T06:34:31;95735.72;;;10.59;86.98
8298;BME280;4187;42.778;23.242;2023-04-28T06:36:58;95741.50;;;10.84;85.69
8298;BME280;4187;42.778;23.242;2023-04-28T06:39:25;95738.31;;;10.99;85.57
8298;BME280;4187;42.778;23.242;2023-04-28T06:41:52;95728.06;;;11.15;83.54
8298;BME280;4187;42.778;23.242;2023-04-28T06:44:18;95737.38;;;11.29;82.98
8298;BME280;4187;42.778;23.242;2023-04-28T06:46:45;95738.63;;;11.44;81.27
8298;BME280;4187;42.778;23.242;2023-04-28T06:49:12;95739.63;;;11.53;80.74
8298;BME280;4187;42.778;23.242;2023-04-28T06:51:40;95737.78;;;11.63;77.74
8298;BME280;4187;42.778;23.242;2023-04-28T06:54:07;95716.78;;;11.61;75.20
8298;BME280;4187;42.778;23.242;2023-04-28T06:56:34;95741.00;;;11.85;78.56
8298;BME280;4187;42.778;23.242;2023-04-28T06:59:01;95725.00;;;11.87;78.19
8298;BME280;4187;42.778;23.242;2023-04-28T07:01:28;95724.72;;;11.90;77.72
8298;BME280;4187;42.778;23.242;2023-04-28T07:03:55;95736.41;;;11.68;73.28
8298;BME280;4187;42.778;23.242;2023-04-28T07:06:23;95723.47;;;11.65;74.64
8298;BME280;4187;42.778;23.242;2023-04-28T07:08:53;95735.75;;;11.76;75.43
8298;BME280;4187;42.778;23.242;2023-04-28T07:11:20;95733.38;;;11.92;73.38
8298;BME280;4187;42.778;23.242;2023-04-28T07:13:47;95736.97;;;11.91;74.88
8298;BME280;4187;42.778;23.242;2023-04-28T07:16:16;95735.25;;;12.09;72.21
8298;BME280;4187;42.778;23.242;2023-04-28T07:18:43;95728.28;;;12.18;71.69
8298;BME280;4187;42.778;23.242;2023-04-28T07:21:10;95728.50;;;12.34;71.84
8298;BME280;4187;42.778;23.242;2023-04-28T07:23:36;95722.19;;;12.54;73.18
8298;BME280;4187;42.778;23.242;2023-04-28T07:26:06;95727.47;;;12.81;73.08
8298;BME280;4187;42.778;23.242;2023-04-28T07:28:33;95729.38;;;12.89;64.71
8298;BME280;4187;42.778;23.242;2023-04-28T07:31:00;95708.41;;;12.95;75.79
8298;BME280;4187;42.778;23.242;2023-04-28T07:33:27;95713.56;;;13.24;82.16
8298;BME280;4187;42.778;23.242;2023-04-28T07:35:54;95729.50;;;13.59;75.24
8298;BME280;4187;42.778;23.242;2023-04-28T07:38:21;95723.03;;;13.79;72.82
8298;BME280;4187;42.778;23.242;2023-04-28T07:40:48;95703.97;;;14.02;73.27
8298;BME280;4187;42.778;23.242;2023-04-28T07:43:16;95714.56;;;14.27;78.17
8298;BME280;4187;42.778;23.242;2023-04-28T07:45:43;95723.34;;;14.46;73.65
8298;BME280;4187;42.778;23.242;2023-04-28T07:48:13;95689.72;;;14.54;73.66
8298;BME280;4187;42.778;23.242;2023-04-28T07:50:40;95715.56;;;14.86;78.24
8298;BME280;4187;42.778;23.242;2023-04-28T07:53:07;95706.00;;;15.09;67.28
8298;BME280;4187;42.778;23.242;2023-04-28T07:55:34;95714.84;;;15.18;62.79
8298;BME280;4187;42.778;23.242;2023-04-28T07:58:01;95720.69;;;15.21;69.57
8298;BME280;4187;42.778;23.242;2023-04-28T08:00:29;95719.59;;;15.48;66.45
8298;BME280;4187;42.778;23.242;2023-04-28T08:02:56;95716.69;;;15.33;60.46
8298;BME280;4187;42.778;23.242;2023-04-28T08:05:23;95717.84;;;15.31;64.14
8298;BME280;4187;42.778;23.242;2023-04-28T08:07:49;95721.34;;;15.31;63.81
8298;BME280;4187;42.778;23.242;2023-04-28T08:10:16;95693.88;;;15.07;61.58
8298;BME280;4187;42.778;23.242;2023-04-28T08:12:43;95719.22;;;15.35;61.57
8298;BME280;4187;42.778;23.242;2023-04-28T08:15:11;95727.25;;;15.59;67.11
8298;BME280;4187;42.778;23.242;2023-04-28T08:17:39;95726.09;;;15.62;58.83
8298;BME280;4187;42.778;23.242;2023-04-28T08:20:07;95728.19;;;15.42;60.04
8298;BME280;4187;42.778;23.242;2023-04-28T08:22:34;95731.00;;;15.24;59.99
8298;BME280;4187;42.778;23.242;2023-04-28T08:25:01;95720.50;;;15.23;64.47
8298;BME280;4187;42.778;23.242;2023-04-28T08:27:27;95722.00;;;15.25;57.47
8298;BME280;4187;42.778;23.242;2023-04-28T08:29:54;95701.41;;;15.19;65.09
8298;BME280;4187;42.778;23.242;2023-04-28T08:32:21;95721.28;;;15.65;60.03
8298;BME280;4187;42.778;23.242;2023-04-28T08:34:49;95716.97;;;15.80;58.06
8298;BME280;4187;42.778;23.242;2023-04-28T08:37:16;95718.97;;;15.78;56.46
8298;BME280;4187;42.778;23.242;2023-04-28T08:39:43;95683.84;;;15.59;63.57
8298;BME280;4187;42.778;23.242;2023-04-28T08:42:11;95697.34;;;15.65;57.96
8298;BME280;4187;42.778;23.242;2023-04-28T08:44:39;95717.28;;;15.77;54.18
8298;BME280;4187;42.778;23.242;2023-04-28T08:47:11;95720.78;;;15.62;62.45
8298;BME280;4187;42.778;23.242;2023-04-28T08:49:39;95712.16;;;15.84;55.77
8298;BME280;4187;42.778;23.242;2023-04-28T08:52:10;95705.16;;;15.83;57.30
8298;BME280;4187;42.778;23.242;2023-04-28T08:54:38;95707.47;;;15.62;55.96
8298;BME280;4187;42.778;23.242;2023-04-28T08:57:08;95710.47;;;15.67;54.33
8298;BME280;4187;42.778;23.242;2023-04-28T08:59:37;95674.38;;;15.72;57.25
8298;BME280;4187;42.778;23.242;2023-04-28T09:02:05;95707.47;;;15.86;49.65
8298;BME280;4187;42.778;23.242;2023-04-28T09:04:32;95705.66;;;15.78;50.23
8298;BME280;4187;42.778;23.242;2023-04-28T09:06:59;95709.81;;;15.89;48.66
8298;BME280;4187;42.778;23.242;2023-04-28T09:09:28;95701.16;;;15.71;47.88
8298;BME280;4187;42.778;23.242;2023-04-28T09:11:56;95690.16;;;15.82;58.29
8298;BME280;4187;42.778;23.242;2023-04-28T09:14:24;95687.63;;;16.29;53.17
8298;BME280;4187;42.778;23.242;2023-04-28T09:16:51;95686.59;;;16.54;55.35
8298;BME280;4187;42.778;23.242;2023-04-28T09:19:19;95677.06;;;16.67;57.94
8298;BME280;4187;42.778;23.242;2023-04-28T09:21:50;95694.28;;;16.88;49.58
8298;BME280;4187;42.778;23.242;2023-04-28T09:24:29;95696.44;;;17.00;46.67
8298;BME280;4187;42.778;23.242;2023-04-28T09:26:56;95688.25;;;17.02;47.50
8298;BME280;4187;42.778;23.242;2023-04-28T09:29:24;95681.69;;;17.12;44.46
8298;BME280;4187;42.778;23.242;2023-04-28T09:31:51;95682.25;;;17.30;47.82
8298;BME280;4187;42.778;23.242;2023-04-28T09:34:18;95678.16;;;17.43;47.04
8298;BME280;4187;42.778;23.242;2023-04-28T09:36:45;95661.56;;;17.32;45.26
8298;BME280;4187;42.778;23.242;2023-04-28T09:39:12;95659.25;;;17.29;47.75
8298;BME280;4187;42.778;23.242;2023-04-28T09:41:41;95659.50;;;17.12;42.49
8298;BME280;4187;42.778;23.242;2023-04-28T09:44:13;95644.53;;;17.11;47.28
8298;BME280;4187;42.778;23.242;2023-04-28T09:46:40;95661.09;;;17.29;46.61
8298;BME280;4187;42.778;23.242;2023-04-28T09:49:07;95650.16;;;17.39;47.63
8298;BME280;4187;42.778;23.242;2023-04-28T09:51:34;95652.53;;;17.64;45.60
8298;BME280;4187;42.778;23.242;2023-04-28T09:54:01;95650.94;;;17.92;46.38
8298;BME280;4187;42.778;23.242;2023-04-28T09:56:29;95650.78;;;17.94;46.35
8298;BME280;4187;42.778;23.242;2023-04-28T09:58:59;95648.56;;;17.98;45.24
8298;BME280;4187;42.778;23.242;2023-04-28T10:01:27;95653.16;;;18.04;39.92
8298;BME280;4187;42.778;23.242;2023-04-28T10:03:59;95639.41;;;18.29;44.34
8298;BME280;4187;42.778;23.242;2023-04-28T10:06:27;95636.56;;;18.45;43.43
8298;BME280;4187;42.778;23.242;2023-04-28T10:08:54;95640.88;;;18.46;42.25
8298;BME280;4187;42.778;23.242;2023-04-28T10:11:23;95640.06;;;18.61;39.92
8298;BME280;4187;42.778;23.242;2023-04-28T10:13:52;95630.38;;;18.74;42.66
8298;BME280;4187;42.778;23.242;2023-04-28T10:16:21;95629.56;;;18.74;40.99
8298;BME280;4187;42.778;23.242;2023-04-28T10:18:49;95633.41;;;18.42;39.69
8298;BME280;4187;42.778;23.242;2023-04-28T10:21:17;95630.38;;;18.16;38.79
8298;BME280;4187;42.778;23.242;2023-04-28T10:24:09;95634.34;;;18.34;43.52
8298;BME280;4187;42.778;23.242;2023-04-28T10:27:05;95631.41;;;18.59;41.97
8298;BME280;4187;42.778;23.242;2023-04-28T10:29:33;95612.75;;;18.80;41.13
8298;BME280;4187;42.778;23.242;2023-04-28T10:32:32;95614.97;;;18.91;36.38
8298;BME280;4187;42.778;23.242;2023-04-28T10:38:04;95612.06;;;18.57;40.70
8298;BME280;4187;42.778;23.242;2023-04-28T10:40:33;95613.63;;;18.22;37.05
8298;BME280;4187;42.778;23.242;2023-04-28T10:43:00;95601.38;;;18.27;41.90
8298;BME280;4187;42.778;23.242;2023-04-28T10:46:03;95599.94;;;18.17;38.55
8298;BME280;4187;42.778;23.242;2023-04-28T10:49:05;95594.88;;;18.07;43.76
8298;BME280;4187;42.778;23.242;2023-04-28T10:51:33;95597.28;;;18.17;40.94
8298;BME280;4187;42.778;23.242;2023-04-28T10:54:15;95579.34;;;18.11;41.24
8298;BME280;4187;42.778;23.242;2023-04-28T10:57:15;95573.16;;;18.25;38.96
8298;BME280;4187;42.778;23.242;2023-04-28T10:59:43;95577.56;;;18.18;39.46
8298;BME280;4187;42.778;23.242;2023-04-28T11:05:16;95576.25;;;17.70;38.33
8298;BME280;4187;42.778;23.242;2023-04-28T11:11:12;95570.56;;;18.31;43.13
8298;BME280;4187;42.778;23.242;2023-04-28T11:13:39;95558.25;;;18.60;41.50
8298;BME280;4187;42.778;23.242;2023-04-28T11:16:06;95562.44;;;18.69;40.71
8298;BME280;4187;42.778;23.242;2023-04-28T11:18:47;95568.50;;;18.77;41.31
8298;BME280;4187;42.778;23.242;2023-04-28T11:21:16;95556.22;;;18.97;40.92
8298;BME280;4187;42.778;23.242;2023-04-28T11:23:44;95541.50;;;18.87;37.90
8298;BME280;4187;42.778;23.242;2023-04-28T11:26:11;95540.44;;;18.88;39.75
8298;BME280;4187;42.778;23.242;2023-04-28T11:28:47;95542.56;;;18.57;37.94
8298;BME280;4187;42.778;23.242;2023-04-28T11:31:15;95534.16;;;18.30;37.68
8298;BME280;4187;42.778;23.242;2023-04-28T11:33:50;95495.75;;;17.44;40.78
8298;BME280;4187;42.778;23.242;2023-04-28T11:36:27;95528.63;;;17.59;42.92
8298;BME280;4187;42.778;23.242;2023-04-28T11:38:56;95521.09;;;17.77;41.38
8298;BME280;4187;42.778;23.242;2023-04-28T11:41:23;95456.50;;;17.67;43.54
8298;BME280;4187;42.778;23.242;2023-04-28T11:44:12;95508.00;;;18.40;41.76
8298;BME280;4187;42.778;23.242;2023-04-28T11:46:46;95516.59;;;18.50;40.03
8298;BME280;4187;42.778;23.242;2023-04-28T11:49:16;95514.31;;;18.18;40.54
8298;BME280;4187;42.778;23.242;2023-04-28T11:51:44;95500.31;;;18.02;42.12
8298;BME280;4187;42.778;23.242;2023-04-28T11:54:15;95516.13;;;18.03;41.78
8298;BME280;4187;42.778;23.242;2023-04-28T11:56:45;95507.75;;;18.21;43.45
8298;BME280;4187;42.778;23.242;2023-04-28T11:59:13;95507.56;;;18.52;41.87
8298;BME280;4187;42.778;23.242;2023-04-28T12:01:46;95500.97;;;18.69;38.97
8298;BME280;4187;42.778;23.242;2023-04-28T12:04:14;95497.38;;;18.97;41.21
8298;BME280;4187;42.778;23.242;2023-04-28T12:07:02;95482.44;;;19.09;43.81
8298;BME280;4187;42.778;23.242;2023-04-28T12:09:30;95504.03;;;19.50;42.45
8298;BME280;4187;42.778;23.242;2023-04-28T12:11:58;95481.72;;;19.71;36.21
8298;BME280;4187;42.778;23.242;2023-04-28T12:14:29;95484.78;;;19.96;37.06
8298;BME280;4187;42.778;23.242;2023-04-28T12:16:56;95484.38;;;19.99;37.99
8298;BME280;4187;42.778;23.242;2023-04-28T12:19:23;95423.13;;;19.55;38.96
8298;BME280;4187;42.778;23.242;2023-04-28T12:22:05;95467.16;;;19.80;38.28
8298;BME280;4187;42.778;23.242;2023-04-28T12:24:32;95479.31;;;20.10;38.57
8298;BME280;4187;42.778;23.242;2023-04-28T12:27:15;95473.25;;;20.30;35.88
8298;BME280;4187;42.778;23.242;2023-04-28T12:29:43;95480.50;;;20.42;36.85
8298;BME280;4187;42.778;23.242;2023-04-28T12:32:11;95473.94;;;20.10;39.09
8298;BME280;4187;42.778;23.242;2023-04-28T12:34:40;95477.78;;;20.01;37.90
8298;BME280;4187;42.778;23.242;2023-04-28T12:37:09;95471.88;;;20.06;37.88
8298;BME280;4187;42.778;23.242;2023-04-28T12:39:38;95440.00;;;19.83;36.77
8298;BME280;4187;42.778;23.242;2023-04-28T12:42:06;95456.28;;;19.88;38.42
8298;BME280;4187;42.778;23.242;2023-04-28T12:44:33;95451.78;;;19.95;38.32
8298;BME280;4187;42.778;23.242;2023-04-28T12:47:06;95460.81;;;19.81;35.87
8298;BME280;4187;42.778;23.242;2023-04-28T12:49:33;95462.59;;;19.74;37.14
8298;BME280;4187;42.778;23.242;2023-04-28T12:52:02;95453.31;;;19.70;35.88
8298;BME280;4187;42.778;23.242;2023-04-28T12:54:30;95447.34;;;19.75;39.05
8298;BME280;4187;42.778;23.242;2023-04-28T12:56:57;95445.66;;;19.67;37.48
8298;BME280;4187;42.778;23.242;2023-04-28T12:59:24;95439.53;;;19.73;37.88
8298;BME280;4187;42.778;23.242;2023-04-28T13:01:52;95444.22;;;19.64;36.85
8298;BME280;4187;42.778;23.242;2023-04-28T13:04:20;95441.44;;;19.51;36.53
8298;BME280;4187;42.778;23.242;2023-04-28T13:06:47;95428.00;;;19.45;39.17
8298;BME280;4187;42.778;23.242;2023-04-28T13:09:14;95434.06;;;19.60;41.11
8298;BME280;4187;42.778;23.242;2023-04-28T13:11:43;95402.66;;;19.75;37.73
8298;BME280;4187;42.778;23.242;2023-04-28T13:14:09;95418.03;;;20.01;37.26
8298;BME280;4187;42.778;23.242;2023-04-28T13:16:38;95438.50;;;20.15;38.77
8298;BME280;4187;42.778;23.242;2023-04-28T13:19:05;95432.13;;;20.22;35.13
8298;BME280;4187;42.778;23.242;2023-04-28T13:21:35;95436.81;;;20.07;34.31
8298;BME280;4187;42.778;23.242;2023-04-28T13:24:02;95428.69;;;19.88;36.34
8298;BME280;4187;42.778;23.242;2023-04-28T13:26:29;95426.56;;;19.77;37.49
8298;BME280;4187;42.778;23.242;2023-04-28T13:28:58;95424.31;;;19.80;38.74